^^
Datos históricos de la estación: Murcia-Puente Tocinos
Diario Informe para Mayo 25, 2019 Unidades:  Ambas    Ingés   Métrico
Diario Semanal Mensual Anual
  Máxima: Mínima: Promedio:
Temperatura: 68.2 °F /  20.1 °C 57 °F /  13.9 °C 62.6 °F /  17 °C
Punto de rocio: 41.7 °F /  5.4 °C 39.2 °F /  4 °C 40.5 °F /  4.7 °C
Humedad: 53.8% 36% 45%
Velocidad viento: 16.8mph /  27km/h - 8.7mph /  14km/h
Racha viento: 30mph /  48.3km/h - -
Viento- - Oeste
Presión: 30 in /  1015.7 hPa 29.9 in /  1011.2 hPa -
Precipitación: 0 in /  0.0 mm    
 
 
Tabla de datos para Mayo 25, 2019
Hora Temperatura Punto de rocio Presión Viento Velocidad viento Racha viento Humedad Intensidad lluvia(por hora) Nubes
00:04 60.1 °F /  15.6 °C 40.8 °F /  4.9 °C 29.9in /  1011.6hPa Oeste 5.2mph /  8.4km/h 6mph /  9.7km/h 49.1% 0in /  0.0mm
00:09 59.9 °F /  15.5 °C 41 °F /  5 °C 29.9in /  1011.6hPa Oeste 4.5mph /  7.3km/h 8.7mph /  14km/h 49.7% 0in /  0.0mm
00:14 60.1 °F /  15.6 °C 40.8 °F /  4.9 °C 29.9in /  1011.6hPa ONO 4mph /  6.5km/h 9mph /  14.5km/h 49% 0in /  0.0mm
00:19 60.3 °F /  15.7 °C 40.6 °F /  4.8 °C 29.9in /  1011.7hPa Oeste 4.7mph /  7.5km/h 8.1mph /  13km/h 48.1% 0in /  0.0mm
00:24 60.4 °F /  15.8 °C 40.6 °F /  4.8 °C 29.9in /  1011.7hPa Oeste 5.2mph /  8.4km/h 11.2mph /  18km/h 48% 0in /  0.0mm
00:29 60.4 °F /  15.8 °C 40.6 °F /  4.8 °C 29.9in /  1011.7hPa Oeste 5.8mph /  9.3km/h 13mph /  20.9km/h 48% 0in /  0.0mm
00:34 60.3 °F /  15.7 °C 40.5 °F /  4.7 °C 29.9in /  1011.7hPa ONO 6.2mph /  10km/h 15.6mph /  25.1km/h 48% 0in /  0.0mm
00:39 60.3 °F /  15.7 °C 40.5 °F /  4.7 °C 29.9in /  1011.6hPa ONO 7mph /  11.2km/h 16.1mph /  25.9km/h 48% 0in /  0.0mm
00:44 60.6 °F /  15.9 °C 40.5 °F /  4.7 °C 29.9in /  1011.6hPa NO 7.6mph /  12.2km/h 16mph /  25.7km/h 47.3% 0in /  0.0mm
00:49 60.4 °F /  15.8 °C 40.3 °F /  4.6 °C 29.9in /  1011.7hPa ONO 7.9mph /  12.7km/h 13.5mph /  21.7km/h 47% 0in /  0.0mm
00:54 60.4 °F /  15.8 °C 40.3 °F /  4.6 °C 29.9in /  1011.7hPa ONO 8.1mph /  13km/h 14mph /  22.5km/h 47% 0in /  0.0mm
00:59 60.4 °F /  15.8 °C 40.3 °F /  4.6 °C 29.9in /  1011.7hPa NO 7.6mph /  12.3km/h 14mph /  22.5km/h 47.5% 0in /  0.0mm
01:04 60.1 °F /  15.6 °C 40.3 °F /  4.6 °C 29.9in /  1011.8hPa NO 7.4mph /  11.9km/h 13mph /  20.9km/h 48% 0in /  0.0mm
01:09 59.7 °F /  15.4 °C 40.5 °F /  4.7 °C 29.9in /  1011.8hPa ONO 7.1mph /  11.5km/h 13mph /  20.9km/h 48.7% 0in /  0.0mm
01:14 59.7 °F /  15.4 °C 40.5 °F /  4.7 °C 29.9in /  1011.8hPa ONO 6.9mph /  11.1km/h 10.4mph /  16.7km/h 49% 0in /  0.0mm
01:19 59.4 °F /  15.2 °C 40.3 °F /  4.6 °C 29.9in /  1011.8hPa ONO 7.3mph /  11.7km/h 11.8mph /  19km/h 49% 0in /  0.0mm
01:24 59.5 °F /  15.3 °C 40.3 °F /  4.6 °C 29.9in /  1011.4hPa ONO 7.6mph /  12.2km/h 14.7mph /  23.7km/h 49% 0in /  0.0mm
01:29 59.5 °F /  15.3 °C 40.3 °F /  4.6 °C 29.9in /  1011.4hPa ONO 8.9mph /  14.4km/h 16.1mph /  25.9km/h 49% 0in /  0.0mm
01:34 59.5 °F /  15.3 °C 40.3 °F /  4.6 °C 29.9in /  1011.4hPa ONO 10mph /  16.1km/h 16mph /  25.7km/h 49% 0in /  0.0mm
01:39 59.9 °F /  15.5 °C 40.3 °F /  4.6 °C 29.9in /  1011.2hPa ONO 10.1mph /  16.3km/h 19.7mph /  31.7km/h 48.1% 0in /  0.0mm
01:44 60.4 °F /  15.8 °C 40.1 °F /  4.5 °C 29.9in /  1011.2hPa ONO 10.2mph /  16.4km/h 20mph /  32.2km/h 47% 0in /  0.0mm
01:49 60.6 °F /  15.9 °C 40.3 °F /  4.6 °C 29.9in /  1011.3hPa ONO 10.7mph /  17.3km/h 18.1mph /  29.1km/h 47% 0in /  0.0mm
01:54 60.8 °F /  16 °C 40.3 °F /  4.6 °C 29.9in /  1011.3hPa ONO 11.2mph /  18km/h 18mph /  29km/h 47% 0in /  0.0mm
01:59 60.6 °F /  15.9 °C 40.3 °F /  4.6 °C 29.9in /  1011.3hPa ONO 10.5mph /  16.9km/h 16mph /  25.7km/h 47% 0in /  0.0mm
02:04 60.6 °F /  15.9 °C 40.3 °F /  4.6 °C 29.9in /  1011.5hPa ONO 10mph /  16.1km/h 15.6mph /  25.1km/h 47% 0in /  0.0mm
02:09 60.6 °F /  15.9 °C 40.3 °F /  4.6 °C 29.9in /  1011.5hPa ONO 9.3mph /  15km/h 16.1mph /  25.9km/h 47% 0in /  0.0mm
02:14 61 °F /  16.1 °C 40.5 °F /  4.7 °C 29.9in /  1011.5hPa ONO 8.7mph /  14km/h 16.1mph /  25.9km/h 47% 0in /  0.0mm
02:19 60.6 °F /  15.9 °C 40.3 °F /  4.6 °C 29.9in /  1011.6hPa ONO 9mph /  14.5km/h 14mph /  22.5km/h 47% 0in /  0.0mm
02:24 60.4 °F /  15.8 °C 40.5 °F /  4.7 °C 29.9in /  1011.6hPa ONO 9.2mph /  14.8km/h 16.1mph /  25.9km/h 47.8% 0in /  0.0mm
02:29 60.1 °F /  15.6 °C 40.3 °F /  4.6 °C 29.9in /  1011.6hPa ONO 8.6mph /  13.8km/h 16mph /  25.7km/h 48% 0in /  0.0mm
02:34 59.9 °F /  15.5 °C 40.5 °F /  4.7 °C 29.9in /  1011.8hPa ONO 8.1mph /  13km/h 15mph /  24.1km/h 48.6% 0in /  0.0mm
02:39 59.7 °F /  15.4 °C 40.5 °F /  4.7 °C 29.9in /  1011.8hPa ONO 8.3mph /  13.4km/h 17.5mph /  28.2km/h 49% 0in /  0.0mm
02:44 59.7 °F /  15.4 °C 40.5 °F /  4.7 °C 29.9in /  1011.8hPa ONO 8.5mph /  13.7km/h 17.3mph /  27.8km/h 49% 0in /  0.0mm
02:49 59.5 °F /  15.3 °C 40.3 °F /  4.6 °C 29.9in /  1011.8hPa ONO 8.3mph /  13.3km/h 14mph /  22.5km/h 49% 0in /  0.0mm
02:54 59.4 °F /  15.2 °C 40.5 °F /  4.7 °C 29.9in /  1011.8hPa Oeste 8.1mph /  13km/h 13mph /  20.9km/h 49.7% 0in /  0.0mm
02:59 59.2 °F /  15.1 °C 40.5 °F /  4.7 °C 29.9in /  1011.8hPa OSO 6.3mph /  10.2km/h 13mph /  20.9km/h 50% 0in /  0.0mm
03:04 59 °F /  15 °C 40.3 °F /  4.6 °C 29.9in /  1012.0hPa SO 5.2mph /  8.4km/h 9mph /  14.5km/h 50% 0in /  0.0mm
03:09 58.8 °F /  14.9 °C 40.3 °F /  4.6 °C 29.9in /  1012.0hPa SE 3.7mph /  6km/h 6mph /  9.7km/h 50.2% 0in /  0.0mm
03:14 58.3 °F /  14.6 °C 40.5 °F /  4.7 °C 29.9in /  1012.0hPa SSE 2.4mph /  3.9km/h 6mph /  9.7km/h 51.4% 0in /  0.0mm
03:19 57.6 °F /  14.2 °C 40.5 °F /  4.7 °C 29.9in /  1012.2hPa SSE 3mph /  4.9km/h 6.9mph /  11.1km/h 52.6% 0in /  0.0mm
03:24 57.4 °F /  14.1 °C 40.3 °F /  4.6 °C 29.9in /  1012.2hPa SSE 3.6mph /  5.8km/h 7mph /  11.3km/h 53% 0in /  0.0mm
03:29 57 °F /  13.9 °C 40.1 °F /  4.5 °C 29.9in /  1012.2hPa SSE 4mph /  6.4km/h 8.1mph /  13km/h 53.1% 0in /  0.0mm
03:34 57.2 °F /  14 °C 40.3 °F /  4.6 °C 29.9in /  1012.2hPa SSO 4.3mph /  6.9km/h 8mph /  12.9km/h 53% 0in /  0.0mm
03:39 57 °F /  13.9 °C 40.3 °F /  4.6 °C 29.9in /  1012.2hPa SSO 4.8mph /  7.7km/h 8.1mph /  13km/h 53.4% 0in /  0.0mm
03:44 57.4 °F /  14.1 °C 40.3 °F /  4.6 °C 29.9in /  1012.2hPa Sur 5.2mph /  8.4km/h 8mph /  12.9km/h 53% 0in /  0.0mm
03:49 57.2 °F /  14 °C 40.3 °F /  4.6 °C 29.9in /  1012.2hPa Sur 4.7mph /  7.6km/h 7.4mph /  11.9km/h 53% 0in /  0.0mm
03:54 57 °F /  13.9 °C 40.5 °F /  4.7 °C 29.9in /  1012.2hPa Sur 4.3mph /  6.9km/h 7mph /  11.3km/h 53.8% 0in /  0.0mm
03:59 57.2 °F /  14 °C 40.6 °F /  4.8 °C 29.9in /  1012.2hPa SSO 4.5mph /  7.3km/h 6.2mph /  10km/h 53.8% 0in /  0.0mm
04:04 57.6 °F /  14.2 °C 40.5 °F /  4.7 °C 29.9in /  1012.2hPa Oeste 4.7mph /  7.6km/h 10.4mph /  16.7km/h 53% 0in /  0.0mm
04:09 57.7 °F /  14.3 °C 40.6 °F /  4.8 °C 29.9in /  1012.2hPa Oeste 5mph /  8km/h 13.7mph /  22km/h 53% 0in /  0.0mm
04:14 57.7 °F /  14.3 °C 40.8 °F /  4.9 °C 29.9in /  1012.2hPa Oeste 5.2mph /  8.4km/h 14mph /  22.5km/h 53% 0in /  0.0mm
04:19 57.9 °F /  14.4 °C 40.8 °F /  4.9 °C 29.9in /  1012.2hPa Oeste 5.8mph /  9.3km/h 14mph /  22.5km/h 53% 0in /  0.0mm
04:24 57.9 °F /  14.4 °C 40.8 °F /  4.9 °C 29.9in /  1012.1hPa Oeste 6.2mph /  10km/h 14mph /  22.5km/h 53% 0in /  0.0mm
04:29 57.7 °F /  14.3 °C 40.6 °F /  4.8 °C 29.9in /  1012.1hPa ONO 6.2mph /  10km/h 10.7mph /  17.2km/h 53% 0in /  0.0mm
04:34 57.7 °F /  14.3 °C 40.6 °F /  4.8 °C 29.9in /  1012.1hPa ONO 6.2mph /  10km/h 13.8mph /  22.2km/h 53% 0in /  0.0mm
04:39 57.9 °F /  14.4 °C 40.8 °F /  4.9 °C 29.9in /  1012.1hPa ONO 6.8mph /  11km/h 16.1mph /  25.9km/h 53% 0in /  0.0mm
04:44 57.9 °F /  14.4 °C 40.6 °F /  4.8 °C 29.9in /  1012.1hPa Oeste 7.4mph /  11.9km/h 16mph /  25.7km/h 52.5% 0in /  0.0mm
04:49 57.9 °F /  14.4 °C 40.8 °F /  4.9 °C 29.9in /  1012.1hPa Oeste 6.8mph /  11km/h 12mph /  19.3km/h 53% 0in /  0.0mm
04:54 57.9 °F /  14.4 °C 40.8 °F /  4.9 °C 29.9in /  1012.0hPa Oeste 6.4mph /  10.3km/h 10.7mph /  17.2km/h 53% 0in /  0.0mm
04:59 57.9 °F /  14.4 °C 40.8 °F /  4.9 °C 29.9in /  1012.0hPa Oeste 5.8mph /  9.3km/h 17.3mph /  27.8km/h 53% 0in /  0.0mm
05:04 58.1 °F /  14.5 °C 40.6 °F /  4.8 °C 29.9in /  1012.0hPa OSO 5.4mph /  8.7km/h 17mph /  27.4km/h 52% 0in /  0.0mm
05:09 58.1 °F /  14.5 °C 40.8 °F /  4.9 °C 29.9in /  1012.0hPa SO 5.4mph /  8.7km/h 12mph /  19.3km/h 52.6% 0in /  0.0mm
05:14 57.9 °F /  14.4 °C 40.8 °F /  4.9 °C 29.9in /  1012.0hPa SO 5.4mph /  8.7km/h 7mph /  11.3km/h 52.7% 0in /  0.0mm
05:19 58.3 °F /  14.6 °C 40.6 °F /  4.8 °C 29.9in /  1012.0hPa OSO 4.6mph /  7.4km/h 8.5mph /  13.7km/h 52% 0in /  0.0mm
05:24 58.3 °F /  14.6 °C 40.6 °F /  4.8 °C 29.9in /  1012.0hPa SO 4mph /  6.5km/h 9mph /  14.5km/h 52% 0in /  0.0mm
05:29 58.5 °F /  14.7 °C 40.8 °F /  4.9 °C 29.9in /  1012.0hPa SO 3.4mph /  5.5km/h 7mph /  11.3km/h 52% 0in /  0.0mm
05:34 58.5 °F /  14.7 °C 40.8 °F /  4.9 °C 29.9in /  1012.0hPa SO 2.9mph /  4.6km/h 9.2mph /  14.8km/h 51.8% 0in /  0.0mm
05:39 58.5 °F /  14.7 °C 40.8 °F /  4.9 °C 29.9in /  1011.9hPa SE 3.6mph /  5.8km/h 9mph /  14.5km/h 51.8% 0in /  0.0mm
05:44 58.5 °F /  14.7 °C 40.8 °F /  4.9 °C 29.9in /  1011.9hPa Sur 4.3mph /  6.9km/h 7.6mph /  12.2km/h 52% 0in /  0.0mm
05:49 58.5 °F /  14.7 °C 40.8 °F /  4.9 °C 29.9in /  1012.0hPa Sur 4mph /  6.4km/h 9.2mph /  14.8km/h 52% 0in /  0.0mm
05:54 58.5 °F /  14.7 °C 40.6 °F /  4.8 °C 29.9in /  1012.0hPa SSE 3.6mph /  5.8km/h 11.4mph /  18.3km/h 51.2% 0in /  0.0mm
05:59 58.8 °F /  14.9 °C 40.5 °F /  4.7 °C 29.9in /  1012.0hPa SSO 4.7mph /  7.5km/h 11mph /  17.7km/h 50.3% 0in /  0.0mm
06:04 59 °F /  15 °C 40.5 °F /  4.7 °C 29.9in /  1012.0hPa SO 5.4mph /  8.7km/h 10.4mph /  16.7km/h 50% 0in /  0.0mm
06:09 59 °F /  15 °C 40.5 °F /  4.7 °C 29.9in /  1012.0hPa Oeste 5.3mph /  8.5km/h 11.5mph /  18.5km/h 50% 0in /  0.0mm
06:14 59 °F /  15 °C 40.5 °F /  4.7 °C 29.9in /  1012.0hPa Oeste 5.2mph /  8.4km/h 20.8mph /  33.5km/h 50% 0in /  0.0mm
06:19 59.4 °F /  15.2 °C 40.5 °F /  4.7 °C 29.9in /  1012.2hPa Oeste 7mph /  11.3km/h 21mph /  33.8km/h 49.7% 0in /  0.0mm
06:24 59.2 °F /  15.1 °C 40.5 °F /  4.7 °C 29.9in /  1012.2hPa Oeste 8.5mph /  13.7km/h 15.6mph /  25.1km/h 50% 0in /  0.0mm
06:29 59 °F /  15 °C 40.5 °F /  4.7 °C 29.9in /  1012.2hPa Oeste 7.3mph /  11.8km/h 16mph /  25.7km/h 50% 0in /  0.0mm
06:34 59 °F /  15 °C 40.3 °F /  4.6 °C 29.9in /  1012.2hPa Oeste 6.4mph /  10.3km/h 16.1mph /  25.9km/h 50% 0in /  0.0mm
06:39 58.8 °F /  14.9 °C 40.3 °F /  4.6 °C 29.9in /  1012.1hPa Oeste 7.5mph /  12.1km/h 16mph /  25.7km/h 50% 0in /  0.0mm
06:44 58.8 °F /  14.9 °C 40.3 °F /  4.6 °C 29.9in /  1012.1hPa Oeste 8.5mph /  13.7km/h 13mph /  20.9km/h 50% 0in /  0.0mm
06:49 59 °F /  15 °C 40.3 °F /  4.6 °C 29.9in /  1012.1hPa Oeste 8mph /  12.8km/h 16.1mph /  25.9km/h 50% 0in /  0.0mm
06:54 59.2 °F /  15.1 °C 40.5 °F /  4.7 °C 29.9in /  1012.1hPa Oeste 7.4mph /  11.9km/h 16.1mph /  25.9km/h 50% 0in /  0.0mm
06:59 59.4 °F /  15.2 °C 40.6 °F /  4.8 °C 29.9in /  1012.1hPa Oeste 7.8mph /  12.6km/h 15.2mph /  24.5km/h 50% 0in /  0.0mm
07:04 59.4 °F /  15.2 °C 40.6 °F /  4.8 °C 29.9in /  1012.3hPa Oeste 8.1mph /  13km/h 17mph /  27.4km/h 50% 0in /  0.0mm
07:09 59.4 °F /  15.2 °C 40.6 °F /  4.8 °C 29.9in /  1012.3hPa ONO 8.1mph /  13km/h 17mph /  27.4km/h 50% 0in /  0.0mm
07:14 59.2 °F /  15.1 °C 40.6 °F /  4.8 °C 29.9in /  1012.3hPa ONO 8.1mph /  13km/h 14mph /  22.5km/h 50.5% 0in /  0.0mm
07:19 59 °F /  15 °C 40.8 °F /  4.9 °C 29.9in /  1012.5hPa Oeste 8.1mph /  13km/h 16.3mph /  26.2km/h 51% 0in /  0.0mm
07:24 58.8 °F /  14.9 °C 40.8 °F /  4.9 °C 29.9in /  1012.5hPa ONO 8.1mph /  13km/h 16mph /  25.7km/h 51% 0in /  0.0mm
07:29 58.8 °F /  14.9 °C 40.6 °F /  4.8 °C 29.9in /  1012.5hPa ONO 9mph /  14.5km/h 18.4mph /  29.6km/h 51% 0in /  0.0mm
07:34 59 °F /  15 °C 40.8 °F /  4.9 °C 29.9in /  1012.7hPa Oeste 9.7mph /  15.6km/h 19.2mph /  30.9km/h 51% 0in /  0.0mm
07:39 59.2 °F /  15.1 °C 41 °F /  5 °C 29.9in /  1012.7hPa ONO 10.4mph /  16.8km/h 23.5mph /  37.8km/h 51% 0in /  0.0mm
07:44 59 °F /  15 °C 40.8 °F /  4.9 °C 29.9in /  1012.7hPa ONO 11.2mph /  18km/h 23mph /  37km/h 51% 0in /  0.0mm
07:49 59 °F /  15 °C 40.8 °F /  4.9 °C 29.9in /  1012.7hPa ONO 10.9mph /  17.6km/h 23mph /  37km/h 51% 0in /  0.0mm
07:54 58.8 °F /  14.9 °C 40.6 °F /  4.8 °C 29.9in /  1012.7hPa ONO 10.7mph /  17.2km/h 20.7mph /  33.3km/h 51% 0in /  0.0mm
07:59 59 °F /  15 °C 41 °F /  5 °C 29.9in /  1012.7hPa ONO 11.1mph /  17.9km/h 21mph /  33.8km/h 51% 0in /  0.0mm
08:04 59 °F /  15 °C 40.8 °F /  4.9 °C 29.9in /  1012.8hPa ONO 11.4mph /  18.4km/h 20.7mph /  33.3km/h 51% 0in /  0.0mm
08:09 58.8 °F /  14.9 °C 40.8 °F /  4.9 °C 29.9in /  1012.8hPa ONO 10.5mph /  16.9km/h 21mph /  33.8km/h 51.3% 0in /  0.0mm
08:14 58.6 °F /  14.8 °C 41.2 °F /  5.1 °C 29.9in /  1012.8hPa Oeste 9.7mph /  15.6km/h 20.8mph /  33.5km/h 52% 0in /  0.0mm
08:19 58.8 °F /  14.9 °C 41 °F /  5 °C 29.9in /  1013.0hPa Oeste 10.3mph /  16.5km/h 21.3mph /  34.3km/h 51.7% 0in /  0.0mm
08:24 59 °F /  15 °C 40.8 °F /  4.9 °C 29.9in /  1013.0hPa ONO 10.7mph /  17.2km/h 21mph /  33.8km/h 51% 0in /  0.0mm
08:29 58.8 °F /  14.9 °C 41 °F /  5 °C 29.9in /  1013.0hPa ONO 10.4mph /  16.8km/h 19mph /  30.6km/h 51.5% 0in /  0.0mm
08:34 58.6 °F /  14.8 °C 41.2 °F /  5.1 °C 29.9in /  1013.1hPa ONO 10.2mph /  16.4km/h 22.3mph /  35.9km/h 52% 0in /  0.0mm
08:39 58.6 °F /  14.8 °C 41.2 °F /  5.1 °C 29.9in /  1013.1hPa ONO 10.1mph /  16.2km/h 22mph /  35.4km/h 52% 0in /  0.0mm
08:44 58.6 °F /  14.8 °C 41.2 °F /  5.1 °C 29.9in /  1013.1hPa ONO 10mph /  16.1km/h 17mph /  27.4km/h 52% 0in /  0.0mm
08:49 58.6 °F /  14.8 °C 41.2 °F /  5.1 °C 29.9in /  1013.4hPa ONO 8.7mph /  14km/h 14mph /  22.5km/h 52% 0in /  0.0mm
08:54 58.8 °F /  14.9 °C 41.2 °F /  5.1 °C 29.9in /  1013.4hPa ONO 7.6mph /  12.2km/h 16.3mph /  26.2km/h 52% 0in /  0.0mm
08:59 59.2 °F /  15.1 °C 41 °F /  5 °C 29.9in /  1013.4hPa ONO 7.6mph /  12.2km/h 16mph /  25.7km/h 51.1% 0in /  0.0mm
09:04 59.2 °F /  15.1 °C 41.2 °F /  5.1 °C 29.9in /  1013.5hPa ONO 7.6mph /  12.2km/h 14mph /  22.5km/h 51% 0in /  0.0mm
09:09 59.2 °F /  15.1 °C 41.2 °F /  5.1 °C 29.9in /  1013.5hPa ONO 8.1mph /  13km/h 14mph /  22.5km/h 51% 0in /  0.0mm
09:14 59.2 °F /  15.1 °C 41.2 °F /  5.1 °C 29.9in /  1013.5hPa ONO 8.5mph /  13.7km/h 14mph /  22.5km/h 51% 0in /  0.0mm
09:19 59.4 °F /  15.2 °C 41.2 °F /  5.1 °C 29.9in /  1013.7hPa Oeste 7.1mph /  11.5km/h 15.2mph /  24.5km/h 51% 0in /  0.0mm
09:24 59.5 °F /  15.3 °C 41.4 °F /  5.2 °C 29.9in /  1013.7hPa ONO 5.9mph /  9.5km/h 15mph /  24.1km/h 51% 0in /  0.0mm
09:29 59.5 °F /  15.3 °C 41.4 °F /  5.2 °C 29.9in /  1013.7hPa Oeste 6.2mph /  9.9km/h 12mph /  19.3km/h 51% 0in /  0.0mm
09:34 59.5 °F /  15.3 °C 41.5 °F /  5.3 °C 29.9in /  1013.9hPa Oeste 6.4mph /  10.3km/h 10.7mph /  17.2km/h 51% 0in /  0.0mm
09:39 59.7 °F /  15.4 °C 41.5 °F /  5.3 °C 29.9in /  1013.9hPa ONO 6.2mph /  9.9km/h 11mph /  17.7km/h 50.8% 0in /  0.0mm
09:44 60.1 °F /  15.6 °C 41.5 °F /  5.3 °C 29.9in /  1013.9hPa Oeste 5.9mph /  9.5km/h 15mph /  24.1km/h 50.2% 0in /  0.0mm
09:49 60.3 °F /  15.7 °C 41.4 °F /  5.2 °C 29.9in /  1014.0hPa Oeste 6.4mph /  10.3km/h 16.3mph /  26.2km/h 49.6% 0in /  0.0mm
09:54 60.6 °F /  15.9 °C 41.4 °F /  5.2 °C 29.9in /  1014.0hPa ONO 6.9mph /  11.1km/h 16mph /  25.7km/h 49% 0in /  0.0mm
09:59 60.8 °F /  16 °C 41.5 °F /  5.3 °C 29.9in /  1014.0hPa ONO 8mph /  12.9km/h 14.7mph /  23.7km/h 49% 0in /  0.0mm
10:04 61 °F /  16.1 °C 41.7 °F /  5.4 °C 29.9in /  1014.1hPa ONO 8.7mph /  14km/h 15mph /  24.1km/h 48.9% 0in /  0.0mm
10:09 61.2 °F /  16.2 °C 41.4 °F /  5.2 °C 29.9in /  1014.1hPa ONO 9.4mph /  15.1km/h 18.4mph /  29.6km/h 48.3% 0in /  0.0mm
10:14 61.3 °F /  16.3 °C 41.5 °F /  5.3 °C 29.9in /  1014.1hPa ONO 10mph /  16.1km/h 18.4mph /  29.6km/h 48.2% 0in /  0.0mm
10:19 61.3 °F /  16.3 °C 41.5 °F /  5.3 °C 29.9in /  1014.1hPa ONO 10.4mph /  16.7km/h 18mph /  29km/h 48% 0in /  0.0mm
10:24 61.5 °F /  16.4 °C 41.4 °F /  5.2 °C 29.9in /  1014.1hPa ONO 10.7mph /  17.2km/h 17.5mph /  28.2km/h 47.7% 0in /  0.0mm
10:29 61.7 °F /  16.5 °C 41.4 °F /  5.2 °C 29.9in /  1014.1hPa ONO 10.4mph /  16.8km/h 17mph /  27.4km/h 47% 0in /  0.0mm
10:34 62.1 °F /  16.7 °C 41.5 °F /  5.3 °C 30in /  1014.2hPa ONO 10.2mph /  16.4km/h 17.3mph /  27.8km/h 47% 0in /  0.0mm
10:39 62.1 °F /  16.7 °C 41.5 °F /  5.3 °C 30in /  1014.2hPa Oeste 9.4mph /  15.1km/h 24.6mph /  39.6km/h 46.8% 0in /  0.0mm
10:44 62.2 °F /  16.8 °C 41.2 °F /  5.1 °C 30in /  1014.2hPa ONO 8.7mph /  14km/h 25mph /  40.2km/h 46% 0in /  0.0mm
10:49 62.4 °F /  16.9 °C 41 °F /  5 °C 30in /  1014.3hPa ONO 10.2mph /  16.4km/h 24mph /  38.6km/h 45.2% 0in /  0.0mm
10:54 62.6 °F /  17 °C 40.8 °F /  4.9 °C 30in /  1014.3hPa ONO 11.4mph /  18.4km/h 21mph /  33.8km/h 45% 0in /  0.0mm
10:59 62.8 °F /  17.1 °C 41.2 °F /  5.1 °C 30in /  1014.3hPa ONO 12.1mph /  19.4km/h 24.2mph /  38.9km/h 45% 0in /  0.0mm
11:04 63 °F /  17.2 °C 41.2 °F /  5.1 °C 30in /  1014.3hPa ONO 12.5mph /  20.1km/h 24mph /  38.6km/h 44.8% 0in /  0.0mm
11:09 63.1 °F /  17.3 °C 41.2 °F /  5.1 °C 30in /  1014.3hPa ONO 11.7mph /  18.9km/h 22mph /  35.4km/h 44.5% 0in /  0.0mm
11:14 63.3 °F /  17.4 °C 41 °F /  5 °C 30in /  1014.3hPa ONO 11.2mph /  18km/h 24.6mph /  39.6km/h 43.9% 0in /  0.0mm
11:19 63.5 °F /  17.5 °C 41 °F /  5 °C 30in /  1014.4hPa ONO 11.3mph /  18.2km/h 25mph /  40.2km/h 43.9% 0in /  0.0mm
11:24 63.7 °F /  17.6 °C 40.8 °F /  4.9 °C 30in /  1014.4hPa ONO 11.4mph /  18.4km/h 23mph /  37km/h 43.1% 0in /  0.0mm
11:29 63.7 °F /  17.6 °C 40.8 °F /  4.9 °C 30in /  1014.4hPa ONO 12.6mph /  20.2km/h 24.2mph /  38.9km/h 43% 0in /  0.0mm
11:34 63.9 °F /  17.7 °C 40.6 °F /  4.8 °C 30in /  1014.4hPa ONO 13.5mph /  21.7km/h 27.6mph /  44.4km/h 42.7% 0in /  0.0mm
11:39 64 °F /  17.8 °C 41 °F /  5 °C 30in /  1014.4hPa ONO 14.5mph /  23.3km/h 28mph /  45.1km/h 43% 0in /  0.0mm
11:44 64.2 °F /  17.9 °C 40.8 °F /  4.9 °C 30in /  1014.4hPa ONO 15.2mph /  24.5km/h 29.9mph /  48.1km/h 42.2% 0in /  0.0mm
11:49 64.6 °F /  18.1 °C 40.6 °F /  4.8 °C 30in /  1014.4hPa ONO 14.3mph /  23km/h 30mph /  48.3km/h 41.6% 0in /  0.0mm
11:54 64.6 °F /  18.1 °C 40.3 °F /  4.6 °C 30in /  1014.2hPa NO 13.5mph /  21.7km/h 28mph /  45.1km/h 41% 0in /  0.0mm
11:59 64.8 °F /  18.2 °C 40.1 °F /  4.5 °C 30in /  1014.2hPa ONO 15.5mph /  25km/h 29.9mph /  48.1km/h 40.5% 0in /  0.0mm
12:04 64.9 °F /  18.3 °C 40.1 °F /  4.5 °C 30in /  1014.2hPa NO 16.8mph /  27km/h 30mph /  48.3km/h 40.4% 0in /  0.0mm
12:09 64.9 °F /  18.3 °C 40.1 °F /  4.5 °C 30in /  1014.2hPa ONO 16.8mph /  27km/h 26mph /  41.8km/h 40% 0in /  0.0mm
12:14 65.1 °F /  18.4 °C 40.1 °F /  4.5 °C 30in /  1014.2hPa ONO 16.8mph /  27km/h 25.3mph /  40.7km/h 40% 0in /  0.0mm
12:19 65.1 °F /  18.4 °C 40.1 °F /  4.5 °C 30in /  1014.2hPa ONO 16.5mph /  26.6km/h 26.8mph /  43.1km/h 39.9% 0in /  0.0mm
12:24 65.3 °F /  18.5 °C 40.1 °F /  4.5 °C 30in /  1014.2hPa ONO 16.3mph /  26.2km/h 27mph /  43.5km/h 39.8% 0in /  0.0mm
12:29 65.7 °F /  18.7 °C 40.1 °F /  4.5 °C 30in /  1014.2hPa ONO 15.4mph /  24.8km/h 25mph /  40.2km/h 39.3% 0in /  0.0mm
12:34 65.7 °F /  18.7 °C 39.9 °F /  4.4 °C 30in /  1014.2hPa ONO 14.7mph /  23.7km/h 25.6mph /  41.2km/h 39% 0in /  0.0mm
12:39 65.8 °F /  18.8 °C 40.1 °F /  4.5 °C 29.9in /  1014.1hPa ONO 14.2mph /  22.8km/h 26.5mph /  42.6km/h 39% 0in /  0.0mm
12:44 65.8 °F /  18.8 °C 40.3 °F /  4.6 °C 29.9in /  1014.1hPa NO 13.7mph /  22.1km/h 29.4mph /  47.3km/h 39% 0in /  0.0mm
12:49 66 °F /  18.9 °C 39.7 °F /  4.3 °C 29.9in /  1014.1hPa ONO 14.1mph /  22.7km/h 30mph /  48.3km/h 38.3% 0in /  0.0mm
12:54 66 °F /  18.9 °C 39.7 °F /  4.3 °C 29.9in /  1013.9hPa ONO 14.5mph /  23.3km/h 23.5mph /  37.8km/h 38.2% 0in /  0.0mm
12:59 66.2 °F /  19 °C 39.9 °F /  4.4 °C 29.9in /  1013.9hPa Oeste 14mph /  22.5km/h 23mph /  37km/h 38% 0in /  0.0mm
13:04 66.6 °F /  19.2 °C 39.7 °F /  4.3 °C 29.9in /  1013.9hPa ONO 13.7mph /  22.1km/h 23.5mph /  37.8km/h 37.3% 0in /  0.0mm
13:09 66.7 °F /  19.3 °C 39.6 °F /  4.2 °C 29.9in /  1013.7hPa ONO 12.9mph /  20.8km/h 23mph /  37km/h 37% 0in /  0.0mm
13:14 66.9 °F /  19.4 °C 39.7 °F /  4.3 °C 29.9in /  1013.7hPa ONO 12.3mph /  19.8km/h 27.6mph /  44.4km/h 37% 0in /  0.0mm
13:19 66.7 °F /  19.3 °C 39.6 °F /  4.2 °C 29.9in /  1013.8hPa ONO 13.2mph /  21.3km/h 28mph /  45.1km/h 37% 0in /  0.0mm
13:24 66.9 °F /  19.4 °C 39.7 °F /  4.3 °C 29.9in /  1013.8hPa NO 14mph /  22.5km/h 26mph /  41.8km/h 37% 0in /  0.0mm
13:29 66.9 °F /  19.4 °C 39.7 °F /  4.3 °C 29.9in /  1013.8hPa ONO 13.9mph /  22.3km/h 24.2mph /  38.9km/h 37% 0in /  0.0mm
13:34 67.3 °F /  19.6 °C 40.1 °F /  4.5 °C 29.9in /  1013.8hPa NO 13.7mph /  22.1km/h 24mph /  38.6km/h 37% 0in /  0.0mm
13:39 67.1 °F /  19.5 °C 39.9 °F /  4.4 °C 29.9in /  1013.7hPa ONO 13.9mph /  22.3km/h 25.3mph /  40.7km/h 37% 0in /  0.0mm
13:44 66.9 °F /  19.4 °C 39.9 °F /  4.4 °C 29.9in /  1013.7hPa ONO 14mph /  22.5km/h 26.5mph /  42.6km/h 37% 0in /  0.0mm
13:49 66.9 °F /  19.4 °C 39.7 °F /  4.3 °C 29.9in /  1013.7hPa ONO 15.1mph /  24.3km/h 29.4mph /  47.3km/h 37% 0in /  0.0mm
13:54 66.9 °F /  19.4 °C 39.7 °F /  4.3 °C 29.9in /  1013.6hPa Oeste 15.9mph /  25.6km/h 29mph /  46.7km/h 37% 0in /  0.0mm
13:59 67.3 °F /  19.6 °C 39.9 °F /  4.4 °C 29.9in /  1013.6hPa ONO 16.5mph /  26.5km/h 26.8mph /  43.1km/h 36.6% 0in /  0.0mm
14:04 67.3 °F /  19.6 °C 40.1 °F /  4.5 °C 29.9in /  1013.6hPa NO 16.8mph /  27km/h 27mph /  43.5km/h 37% 0in /  0.0mm
14:09 67.5 °F /  19.7 °C 39.7 °F /  4.3 °C 29.9in /  1013.4hPa ONO 16.8mph /  27km/h 29.1mph /  46.8km/h 36.1% 0in /  0.0mm
14:14 67.5 °F /  19.7 °C 39.6 °F /  4.2 °C 29.9in /  1013.4hPa NO 16.8mph /  27km/h 29mph /  46.7km/h 36% 0in /  0.0mm
14:19 67.8 °F /  19.9 °C 39.9 °F /  4.4 °C 29.9in /  1013.4hPa NO 15.3mph /  24.7km/h 28mph /  45.1km/h 36% 0in /  0.0mm
14:24 67.8 °F /  19.9 °C 39.9 °F /  4.4 °C 29.9in /  1013.4hPa NO 14mph /  22.5km/h 26.1mph /  42km/h 36% 0in /  0.0mm
14:29 67.8 °F /  19.9 °C 39.9 °F /  4.4 °C 29.9in /  1013.4hPa NO 14.2mph /  22.9km/h 26.5mph /  42.6km/h 36% 0in /  0.0mm
14:34 67.8 °F /  19.9 °C 39.9 °F /  4.4 °C 29.9in /  1013.4hPa NO 14.5mph /  23.3km/h 29.9mph /  48.1km/h 36% 0in /  0.0mm
14:39 67.8 °F /  19.9 °C 39.9 °F /  4.4 °C 29.9in /  1013.2hPa ONO 13.7mph /  22km/h 30mph /  48.3km/h 36% 0in /  0.0mm
14:44 67.8 °F /  19.9 °C 40.1 °F /  4.5 °C 29.9in /  1013.2hPa ONO 13mph /  20.9km/h 24.6mph /  39.6km/h 36.3% 0in /  0.0mm
14:49 67.8 °F /  19.9 °C 40.5 °F /  4.7 °C 29.9in /  1013.2hPa ONO 12.6mph /  20.3km/h 25.6mph /  41.2km/h 36.9% 0in /  0.0mm
14:54 67.6 °F /  19.8 °C 40.3 °F /  4.6 °C 29.9in /  1013.2hPa ONO 12.3mph /  19.8km/h 26mph /  41.8km/h 36.7% 0in /  0.0mm
14:59 67.6 °F /  19.8 °C 40.5 °F /  4.7 °C 29.9in /  1013.2hPa ONO 12.4mph /  20km/h 25.3mph /  40.7km/h 37% 0in /  0.0mm
15:04 67.5 °F /  19.7 °C 40.5 °F /  4.7 °C 29.9in /  1013.3hPa ONO 12.5mph /  20.1km/h 25mph /  40.2km/h 37.2% 0in /  0.0mm
15:09 67.5 °F /  19.7 °C 40.6 °F /  4.8 °C 29.9in /  1013.3hPa ONO 12.8mph /  20.6km/h 25mph /  40.2km/h 37.5% 0in /  0.0mm
15:14 67.5 °F /  19.7 °C 40.8 °F /  4.9 °C 29.9in /  1013.3hPa ONO 13mph /  20.9km/h 22.5mph /  36.2km/h 37.7% 0in /  0.0mm
15:19 67.5 °F /  19.7 °C 40.8 °F /  4.9 °C 29.9in /  1013.3hPa ONO 13.5mph /  21.8km/h 25.6mph /  41.2km/h 37.8% 0in /  0.0mm
15:24 67.5 °F /  19.7 °C 40.8 °F /  4.9 °C 29.9in /  1013.2hPa ONO 14mph /  22.5km/h 26.8mph /  43.1km/h 37.9% 0in /  0.0mm
15:29 67.5 °F /  19.7 °C 40.8 °F /  4.9 °C 29.9in /  1013.2hPa ONO 14.6mph /  23.5km/h 27mph /  43.5km/h 38% 0in /  0.0mm
15:34 67.5 °F /  19.7 °C 41 °F /  5 °C 29.9in /  1013.2hPa ONO 15.2mph /  24.5km/h 26mph /  41.8km/h 38% 0in /  0.0mm
15:39 67.5 °F /  19.7 °C 41 °F /  5 °C 29.9in /  1013.1hPa ONO 15.2mph /  24.5km/h 25.3mph /  40.7km/h 38% 0in /  0.0mm
15:44 67.5 °F /  19.7 °C 41 °F /  5 °C 29.9in /  1013.1hPa NO 15.2mph /  24.5km/h 25mph /  40.2km/h 38% 0in /  0.0mm
15:49 67.6 °F /  19.8 °C 41 °F /  5 °C 29.9in /  1013.2hPa ONO 14mph /  22.6km/h 24.2mph /  38.9km/h 37.9% 0in /  0.0mm
15:54 67.6 °F /  19.8 °C 41.2 °F /  5.1 °C 29.9in /  1013.2hPa ONO 13mph /  20.9km/h 24mph /  38.6km/h 38% 0in /  0.0mm
15:59 67.8 °F /  19.9 °C 41.2 °F /  5.1 °C 29.9in /  1013.2hPa ONO 13.3mph /  21.4km/h 25.3mph /  40.7km/h 38% 0in /  0.0mm
16:04 67.6 °F /  19.8 °C 40.8 °F /  4.9 °C 29.9in /  1013.2hPa ONO 13.5mph /  21.7km/h 26.3mph /  42.3km/h 37.5% 0in /  0.0mm
16:09 67.5 °F /  19.7 °C 41 °F /  5 °C 29.9in /  1013.2hPa ONO 13.8mph /  22.2km/h 26mph /  41.8km/h 38% 0in /  0.0mm
16:14 67.5 °F /  19.7 °C 41 °F /  5 °C 29.9in /  1013.2hPa Oeste 14mph /  22.5km/h 21mph /  33.8km/h 38% 0in /  0.0mm
16:19 67.6 °F /  19.8 °C 41.2 °F /  5.1 °C 29.9in /  1013.3hPa Oeste 12.9mph /  20.7km/h 23mph /  37km/h 38% 0in /  0.0mm
16:24 67.8 °F /  19.9 °C 41.2 °F /  5.1 °C 29.9in /  1013.3hPa Oeste 11.8mph /  19km/h 23mph /  37km/h 38% 0in /  0.0mm
16:29 67.6 °F /  19.8 °C 41 °F /  5 °C 29.9in /  1013.3hPa ONO 12.1mph /  19.4km/h 21.3mph /  34.3km/h 38% 0in /  0.0mm
16:34 67.5 °F /  19.7 °C 41 °F /  5 °C 29.9in /  1013.3hPa Oeste 12.3mph /  19.8km/h 25.3mph /  40.7km/h 38% 0in /  0.0mm
16:39 67.5 °F /  19.7 °C 41 °F /  5 °C 29.9in /  1013.3hPa Oeste 12.9mph /  20.8km/h 25mph /  40.2km/h 38% 0in /  0.0mm
16:44 67.6 °F /  19.8 °C 41 °F /  5 °C 29.9in /  1013.3hPa Oeste 13.5mph /  21.7km/h 22.5mph /  36.2km/h 38% 0in /  0.0mm
16:49 67.6 °F /  19.8 °C 41.2 °F /  5.1 °C 29.9in /  1013.4hPa Oeste 12.2mph /  19.7km/h 24.2mph /  38.9km/h 38% 0in /  0.0mm
16:54 67.8 °F /  19.9 °C 41.4 °F /  5.2 °C 29.9in /  1013.4hPa Oeste 11.2mph /  18km/h 24mph /  38.6km/h 38% 0in /  0.0mm
16:59 68 °F /  20 °C 41 °F /  5 °C 29.9in /  1013.4hPa Oeste 10.3mph /  16.6km/h 22.3mph /  35.9km/h 37.5% 0in /  0.0mm
17:04 68.2 °F /  20.1 °C 40.8 °F /  4.9 °C 29.9in /  1013.4hPa Oeste 9.7mph /  15.6km/h 22mph /  35.4km/h 37% 0in /  0.0mm
17:09 68.2 °F /  20.1 °C 40.8 °F /  4.9 °C 29.9in /  1013.2hPa Oeste 9.9mph /  15.9km/h 22mph /  35.4km/h 37% 0in /  0.0mm
17:14 68.2 °F /  20.1 °C 40.8 °F /  4.9 °C 29.9in /  1013.2hPa ONO 10mph /  16.1km/h 18mph /  29km/h 37% 0in /  0.0mm
17:19 68.2 °F /  20.1 °C 40.8 °F /  4.9 °C 29.9in /  1013.2hPa Oeste 9mph /  14.5km/h 17mph /  27.4km/h 37% 0in /  0.0mm
17:24 68.2 °F /  20.1 °C 40.8 °F /  4.9 °C 29.9in /  1013.2hPa Oeste 8.1mph /  13km/h 15mph /  24.1km/h 37% 0in /  0.0mm
17:29 68.2 °F /  20.1 °C 40.8 °F /  4.9 °C 29.9in /  1013.2hPa Oeste 7.8mph /  12.6km/h 18.4mph /  29.6km/h 37% 0in /  0.0mm
17:34 68.2 °F /  20.1 °C 40.8 °F /  4.9 °C 29.9in /  1013.3hPa Oeste 7.6mph /  12.2km/h 18mph /  29km/h 37% 0in /  0.0mm
17:39 68 °F /  20 °C 40.6 °F /  4.8 °C 29.9in /  1013.3hPa Oeste 7.6mph /  12.2km/h 17.3mph /  27.8km/h 37% 0in /  0.0mm
17:44 67.8 °F /  19.9 °C 40.6 °F /  4.8 °C 29.9in /  1013.3hPa Oeste 7.6mph /  12.2km/h 19.7mph /  31.7km/h 37% 0in /  0.0mm
17:49 67.8 °F /  19.9 °C 40.6 °F /  4.8 °C 29.9in /  1013.3hPa Oeste 8.7mph /  14km/h 21.3mph /  34.3km/h 37% 0in /  0.0mm
17:54 67.6 °F /  19.8 °C 40.5 °F /  4.7 °C 29.9in /  1013.3hPa Oeste 9.7mph /  15.6km/h 21mph /  33.8km/h 37% 0in /  0.0mm
17:59 67.5 °F /  19.7 °C 40.3 °F /  4.6 °C 29.9in /  1013.3hPa Oeste 10.7mph /  17.3km/h 19mph /  30.6km/h 37% 0in /  0.0mm
18:04 67.5 °F /  19.7 °C 40.3 °F /  4.6 °C 29.9in /  1013.3hPa Oeste 11.4mph /  18.4km/h 18.4mph /  29.6km/h 37% 0in /  0.0mm
18:09 67.3 °F /  19.6 °C 40.1 °F /  4.5 °C 29.9in /  1013.3hPa Oeste 10mph /  16.1km/h 18mph /  29km/h 37% 0in /  0.0mm
18:14 67.1 °F /  19.5 °C 40.6 °F /  4.8 °C 29.9in /  1013.3hPa OSO 8.7mph /  14km/h 16mph /  25.7km/h 38% 0in /  0.0mm
18:19 66.9 °F /  19.4 °C 40.5 °F /  4.7 °C 29.9in /  1013.4hPa OSO 8mph /  12.9km/h 15mph /  24.1km/h 37.9% 0in /  0.0mm
18:24 66.7 °F /  19.3 °C 40.5 °F /  4.7 °C 29.9in /  1013.4hPa OSO 7.4mph /  11.9km/h 15mph /  24.1km/h 38% 0in /  0.0mm
18:29 66.6 °F /  19.2 °C 40.1 °F /  4.5 °C 29.9in /  1013.4hPa Oeste 6.6mph /  10.6km/h 11.5mph /  18.5km/h 38% 0in /  0.0mm
18:34 66.6 °F /  19.2 °C 40.1 °F /  4.5 °C 29.9in /  1013.5hPa Oeste 5.9mph /  9.5km/h 12mph /  19.3km/h 38% 0in /  0.0mm
18:39 66.4 °F /  19.1 °C 40.5 °F /  4.7 °C 29.9in /  1013.5hPa Oeste 5.7mph /  9.1km/h 10mph /  16.1km/h 38.8% 0in /  0.0mm
18:44 66 °F /  18.9 °C 40.3 °F /  4.6 °C 29.9in /  1013.5hPa Oeste 5.4mph /  8.7km/h 13.8mph /  22.2km/h 39% 0in /  0.0mm
18:49 66 °F /  18.9 °C 40.3 °F /  4.6 °C 29.9in /  1013.7hPa Oeste 5.8mph /  9.4km/h 14mph /  22.5km/h 39% 0in /  0.0mm
18:54 65.8 °F /  18.8 °C 40.3 °F /  4.6 °C 29.9in /  1013.7hPa Oeste 6.2mph /  10km/h 13mph /  20.9km/h 39% 0in /  0.0mm
18:59 65.8 °F /  18.8 °C 40.3 °F /  4.6 °C 29.9in /  1013.7hPa Oeste 6.3mph /  10.2km/h 14.7mph /  23.7km/h 39% 0in /  0.0mm
19:04 65.8 °F /  18.8 °C 40.3 °F /  4.6 °C 29.9in /  1013.8hPa Oeste 6.4mph /  10.3km/h 15mph /  24.1km/h 39% 0in /  0.0mm
19:09 65.8 °F /  18.8 °C 40.3 °F /  4.6 °C 29.9in /  1013.8hPa Oeste 6.3mph /  10.1km/h 13.7mph /  22km/h 39% 0in /  0.0mm
19:14 65.8 °F /  18.8 °C 40.3 °F /  4.6 °C 29.9in /  1013.8hPa OSO 6.2mph /  10km/h 15.2mph /  24.5km/h 39% 0in /  0.0mm
19:19 66 °F /  18.9 °C 40.3 °F /  4.6 °C 29.9in /  1014.0hPa OSO 6.6mph /  10.6km/h 15mph /  24.1km/h 39% 0in /  0.0mm
19:24 66 °F /  18.9 °C 40.3 °F /  4.6 °C 29.9in /  1014.0hPa SO 6.9mph /  11.1km/h 13mph /  20.9km/h 39% 0in /  0.0mm
19:29 65.8 °F /  18.8 °C 40.5 °F /  4.7 °C 29.9in /  1014.0hPa SSO 6.6mph /  10.7km/h 13mph /  20.9km/h 39.2% 0in /  0.0mm
19:34 65.5 °F /  18.6 °C 40.5 °F /  4.7 °C 29.9in /  1014.0hPa SO 6.4mph /  10.3km/h 12.5mph /  20.1km/h 40% 0in /  0.0mm
19:39 65.1 °F /  18.4 °C 40.3 °F /  4.6 °C 29.9in /  1014.0hPa SO 7mph /  11.2km/h 13mph /  20.9km/h 40.1% 0in /  0.0mm
19:44 64.9 °F /  18.3 °C 40.5 °F /  4.7 °C 29.9in /  1014.0hPa OSO 7.4mph /  11.9km/h 13mph /  20.9km/h 40.7% 0in /  0.0mm
19:49 64.8 °F /  18.2 °C 40.5 °F /  4.7 °C 30in /  1014.2hPa OSO 6.8mph /  10.9km/h 11mph /  17.7km/h 41% 0in /  0.0mm
19:54 64.8 °F /  18.2 °C 40.5 °F /  4.7 °C 30in /  1014.2hPa SO 6.2mph /  10km/h 10mph /  16.1km/h 41% 0in /  0.0mm
19:59 64.8 °F /  18.2 °C 40.5 °F /  4.7 °C 30in /  1014.2hPa Sur 5.7mph /  9.2km/h 9mph /  14.5km/h 41% 0in /  0.0mm
20:04 64.6 °F /  18.1 °C 40.3 °F /  4.6 °C 30in /  1014.5hPa SSO 5.4mph /  8.7km/h 10.4mph /  16.7km/h 41.1% 0in /  0.0mm
20:09 64.2 °F /  17.9 °C 40.6 °F /  4.8 °C 30in /  1014.5hPa SSO 5.4mph /  8.7km/h 10.4mph /  16.7km/h 42% 0in /  0.0mm
20:14 64.2 °F /  17.9 °C 40.6 °F /  4.8 °C 30in /  1014.5hPa SO 5.4mph /  8.7km/h 10.7mph /  17.2km/h 42% 0in /  0.0mm
20:19 64.2 °F /  17.9 °C 40.6 °F /  4.8 °C 30in /  1014.6hPa SO 6.2mph /  10km/h 11mph /  17.7km/h 42% 0in /  0.0mm
20:24 64 °F /  17.8 °C 40.5 °F /  4.7 °C 30in /  1014.6hPa SO 6.9mph /  11.1km/h 11mph /  17.7km/h 42% 0in /  0.0mm
20:29 64 °F /  17.8 °C 40.5 °F /  4.7 °C 30in /  1014.6hPa SO 6.4mph /  10.3km/h 9.2mph /  14.8km/h 42% 0in /  0.0mm
20:34 64 °F /  17.8 °C 40.5 °F /  4.7 °C 30in /  1014.8hPa SO 5.9mph /  9.5km/h 9mph /  14.5km/h 42% 0in /  0.0mm
20:39 64 °F /  17.8 °C 40.5 °F /  4.7 °C 30in /  1014.8hPa SO 5.7mph /  9.1km/h 8.7mph /  14km/h 42% 0in /  0.0mm
20:44 64 °F /  17.8 °C 40.5 °F /  4.7 °C 30in /  1014.8hPa OSO 5.4mph /  8.7km/h 9.2mph /  14.8km/h 42% 0in /  0.0mm
20:49 64 °F /  17.8 °C 40.5 °F /  4.7 °C 30in /  1014.8hPa OSO 5.4mph /  8.7km/h 9.7mph /  15.6km/h 42% 0in /  0.0mm
20:54 63.9 °F /  17.7 °C 40.3 °F /  4.6 °C 30in /  1014.7hPa OSO 5.4mph /  8.7km/h 10mph /  16.1km/h 42% 0in /  0.0mm
20:59 63.7 °F /  17.6 °C 40.1 °F /  4.5 °C 30in /  1014.7hPa SO 5.3mph /  8.5km/h 9mph /  14.5km/h 42% 0in /  0.0mm
21:04 63.7 °F /  17.6 °C 40.3 °F /  4.6 °C 30in /  1015.0hPa SSO 5.2mph /  8.4km/h 8.1mph /  13km/h 42.2% 0in /  0.0mm
21:09 63.3 °F /  17.4 °C 40.6 °F /  4.8 °C 30in /  1015.0hPa Sur 4.9mph /  7.9km/h 8.1mph /  13km/h 43.2% 0in /  0.0mm
21:14 62.6 °F /  17 °C 40.6 °F /  4.8 °C 30in /  1015.0hPa SSO 4.7mph /  7.6km/h 10.4mph /  16.7km/h 44.4% 0in /  0.0mm
21:19 62.1 °F /  16.7 °C 40.5 °F /  4.7 °C 30in /  1015.1hPa SSO 5.6mph /  9km/h 10.4mph /  16.7km/h 45% 0in /  0.0mm
21:24 62.1 °F /  16.7 °C 40.5 °F /  4.7 °C 30in /  1015.1hPa SSO 6.4mph /  10.3km/h 10mph /  16.1km/h 45% 0in /  0.0mm
21:29 62.1 °F /  16.7 °C 40.5 °F /  4.7 °C 30in /  1015.1hPa SO 6.2mph /  9.9km/h 10mph /  16.1km/h 45% 0in /  0.0mm
21:34 61.9 °F /  16.6 °C 40.6 °F /  4.8 °C 30in /  1015.1hPa SO 5.9mph /  9.5km/h 8.1mph /  13km/h 45.6% 0in /  0.0mm
21:39 61.9 °F /  16.6 °C 40.8 °F /  4.9 °C 30in /  1015.0hPa SO 5.5mph /  8.9km/h 8.5mph /  13.7km/h 45.9% 0in /  0.0mm
21:44 61.9 °F /  16.6 °C 40.3 °F /  4.6 °C 30in /  1015.0hPa SO 5.2mph /  8.4km/h 9mph /  14.5km/h 45.1% 0in /  0.0mm
21:49 61.9 °F /  16.6 °C 40.8 °F /  4.9 °C 30in /  1015.2hPa SO 5.2mph /  8.4km/h 9.2mph /  14.8km/h 45.9% 0in /  0.0mm
21:54 61.9 °F /  16.6 °C 40.5 °F /  4.7 °C 30in /  1015.2hPa SO 5.2mph /  8.4km/h 9.2mph /  14.8km/h 45.4% 0in /  0.0mm
21:59 61.7 °F /  16.5 °C 40.6 °F /  4.8 °C 30in /  1015.2hPa SSO 5.2mph /  8.4km/h 9.2mph /  14.8km/h 46% 0in /  0.0mm
22:04 61.3 °F /  16.3 °C 40.5 °F /  4.7 °C 30in /  1015.2hPa SSO 5.2mph /  8.4km/h 8.1mph /  13km/h 46% 0in /  0.0mm
22:09 61.2 °F /  16.2 °C 40.3 °F /  4.6 °C 30in /  1015.2hPa SO 4.7mph /  7.6km/h 9.7mph /  15.6km/h 46% 0in /  0.0mm
22:14 61.2 °F /  16.2 °C 40.3 °F /  4.6 °C 30in /  1015.2hPa SO 4.3mph /  6.9km/h 10mph /  16.1km/h 46% 0in /  0.0mm
22:19 61.2 °F /  16.2 °C 40.3 °F /  4.6 °C 30in /  1015.4hPa SO 4.8mph /  7.8km/h 9mph /  14.5km/h 46% 0in /  0.0mm
22:24 61.2 °F /  16.2 °C 40.3 °F /  4.6 °C 30in /  1015.4hPa Oeste 5.4mph /  8.7km/h 8mph /  12.9km/h 46% 0in /  0.0mm
22:29 61.2 °F /  16.2 °C 40.3 °F /  4.6 °C 30in /  1015.4hPa SO 4.5mph /  7.2km/h 6.9mph /  11.1km/h 46% 0in /  0.0mm
22:34 61.3 °F /  16.3 °C 40.5 °F /  4.7 °C 30in /  1015.5hPa SSO 3.6mph /  5.8km/h 7mph /  11.3km/h 46% 0in /  0.0mm
22:39 61.2 °F /  16.2 °C 40.3 °F /  4.6 °C 30in /  1015.5hPa Sur 3.8mph /  6.1km/h 8.5mph /  13.7km/h 46.4% 0in /  0.0mm
22:44 60.6 °F /  15.9 °C 40.3 °F /  4.6 °C 30in /  1015.5hPa SSO 4mph /  6.5km/h 9.2mph /  14.8km/h 47% 0in /  0.0mm
22:49 60.4 °F /  15.8 °C 40.1 °F /  4.5 °C 30in /  1015.5hPa SSO 5.2mph /  8.3km/h 9.2mph /  14.8km/h 47% 0in /  0.0mm
22:54 60.4 °F /  15.8 °C 40.1 °F /  4.5 °C 30in /  1015.5hPa SO 6.2mph /  10km/h 10.4mph /  16.7km/h 47% 0in /  0.0mm
22:59 60.8 °F /  16 °C 39.9 °F /  4.4 °C 30in /  1015.5hPa OSO 6.3mph /  10.2km/h 11.8mph /  19km/h 46.1% 0in /  0.0mm
23:04 61.3 °F /  16.3 °C 39.7 °F /  4.3 °C 30in /  1015.5hPa OSO 6.4mph /  10.3km/h 12mph /  19.3km/h 45% 0in /  0.0mm
23:09 61.5 °F /  16.4 °C 39.9 °F /  4.4 °C 30in /  1015.5hPa OSO 6.3mph /  10.2km/h 12mph /  19.3km/h 45% 0in /  0.0mm
23:14 61.3 °F /  16.3 °C 39.9 °F /  4.4 °C 30in /  1015.5hPa Oeste 6.2mph /  10km/h 9.2mph /  14.8km/h 45% 0in /  0.0mm
23:19 61.2 °F /  16.2 °C 39.6 °F /  4.2 °C 30in /  1015.5hPa OSO 5.8mph /  9.3km/h 10mph /  16.1km/h 45% 0in /  0.0mm
23:24 61.2 °F /  16.2 °C 39.6 °F /  4.2 °C 30in /  1015.5hPa Oeste 5.4mph /  8.7km/h 10.4mph /  16.7km/h 45% 0in /  0.0mm
23:29 61.2 °F /  16.2 °C 39.4 °F /  4.1 °C 30in /  1015.5hPa Oeste 5.7mph /  9.1km/h 10mph /  16.1km/h 44.4% 0in /  0.0mm
23:34 61.3 °F /  16.3 °C 39.2 °F /  4 °C 30in /  1015.6hPa OSO 5.9mph /  9.5km/h 9.2mph /  14.8km/h 44% 0in /  0.0mm
23:39 61.3 °F /  16.3 °C 39.2 °F /  4 °C 30in /  1015.6hPa OSO 5.3mph /  8.5km/h 9.2mph /  14.8km/h 44% 0in /  0.0mm
23:44 61.3 °F /  16.3 °C 39.2 °F /  4 °C 30in /  1015.6hPa OSO 4.7mph /  7.6km/h 7mph /  11.3km/h 44% 0in /  0.0mm
23:49 61.2 °F /  16.2 °C 39.4 °F /  4.1 °C 30in /  1015.7hPa SSO 4.1mph /  6.6km/h 6.2mph /  10km/h 44.7% 0in /  0.0mm
23:54 61 °F /  16.1 °C 39.4 °F /  4.1 °C 30in /  1015.7hPa SSO 3.6mph /  5.8km/h 6.9mph /  11.1km/h 45% 0in /  0.0mm
23:59 60.6 °F /  15.9 °C 39.2 °F /  4 °C 30in /  1015.7hPa SO 3.9mph /  6.2km/h 9.2mph /  14.8km/h 45% 0in /  0.0mm
Murcia-Puente Tocinos, España
Compliments of Weather Underground - 3.5 mb

La estación de MeteoMurcia.com, publica sus datos en los siguientes proyectos:

Weather Underground PWS IMURCIAP2 Meteoclimatic www.awekas.at

W3Counter
Web Analytics